sensor_id;sensor_type;location;lat;lon;timestamp;temperature;humidity
322;DHT22;148;51.480;7.208;2024-01-06T00:01:11;9.80;99.90
322;DHT22;148;51.480;7.208;2024-01-06T00:03:37;9.70;99.90
322;DHT22;148;51.480;7.208;2024-01-06T00:06:03;9.70;99.90
322;DHT22;148;51.480;7.208;2024-01-06T00:08:29;9.70;99.90
322;DHT22;148;51.480;7.208;2024-01-06T00:10:54;9.70;99.90
322;DHT22;148;51.480;7.208;2024-01-06T00:13:20;9.80;99.90
322;DHT22;148;51.480;7.208;2024-01-06T00:15:46;9.70;99.90
322;DHT22;148;51.480;7.208;2024-01-06T00:18:11;9.80;99.90
322;DHT22;148;51.480;7.208;2024-01-06T00:20:37;9.90;99.90
322;DHT22;148;51.480;7.208;2024-01-06T00:23:03;9.80;99.90
322;DHT22;148;51.480;7.208;2024-01-06T00:25:29;9.80;99.90
322;DHT22;148;51.480;7.208;2024-01-06T00:27:54;9.80;99.90
322;DHT22;148;51.480;7.208;2024-01-06T00:30:20;9.90;99.90
322;DHT22;148;51.480;7.208;2024-01-06T00:32:46;9.90;99.90
322;DHT22;148;51.480;7.208;2024-01-06T00:35:11;9.90;99.90
322;DHT22;148;51.480;7.208;2024-01-06T00:37:37;9.90;99.90
322;DHT22;148;51.480;7.208;2024-01-06T00:40:03;9.90;99.90
322;DHT22;148;51.480;7.208;2024-01-06T00:42:29;9.90;99.90
322;DHT22;148;51.480;7.208;2024-01-06T00:44:55;9.90;99.90
322;DHT22;148;51.480;7.208;2024-01-06T00:47:21;9.90;99.90
322;DHT22;148;51.480;7.208;2024-01-06T03:32:53;7.20;99.90
322;DHT22;148;51.480;7.208;2024-01-06T03:35:19;7.30;99.90
322;DHT22;148;51.480;7.208;2024-01-06T03:37:45;7.70;99.90
322;DHT22;148;51.480;7.208;2024-01-06T03:40:11;7.80;99.90
322;DHT22;148;51.480;7.208;2024-01-06T03:42:37;8.10;99.90
322;DHT22;148;51.480;7.208;2024-01-06T03:45:03;8.30;99.90
322;DHT22;148;51.480;7.208;2024-01-06T03:47:29;8.30;99.90
322;DHT22;148;51.480;7.208;2024-01-06T03:49:54;8.50;99.90
322;DHT22;148;51.480;7.208;2024-01-06T03:52:20;8.40;99.90
322;DHT22;148;51.480;7.208;2024-01-06T03:54:46;8.40;99.90
322;DHT22;148;51.480;7.208;2024-01-06T03:57:11;8.60;99.90
322;DHT22;148;51.480;7.208;2024-01-06T03:59:37;8.80;99.90
322;DHT22;148;51.480;7.208;2024-01-06T04:02:03;8.70;99.90
322;DHT22;148;51.480;7.208;2024-01-06T04:04:28;8.90;99.90
322;DHT22;148;51.480;7.208;2024-01-06T04:06:54;8.90;99.90
322;DHT22;148;51.480;7.208;2024-01-06T04:09:20;9.00;99.90
322;DHT22;148;51.480;7.208;2024-01-06T04:11:46;9.00;99.90
322;DHT22;148;51.480;7.208;2024-01-06T04:14:11;8.60;99.90
322;DHT22;148;51.480;7.208;2024-01-06T04:16:37;8.50;99.90
322;DHT22;148;51.480;7.208;2024-01-06T04:19:03;8.50;99.90
322;DHT22;148;51.480;7.208;2024-01-06T04:21:28;8.60;99.90
322;DHT22;148;51.480;7.208;2024-01-06T04:23:54;8.70;99.90
322;DHT22;148;51.480;7.208;2024-01-06T04:26:21;8.70;99.90
322;DHT22;148;51.480;7.208;2024-01-06T04:28:47;8.50;99.90
322;DHT22;148;51.480;7.208;2024-01-06T04:31:12;8.40;99.90
322;DHT22;148;51.480;7.208;2024-01-06T04:33:38;8.30;99.90
322;DHT22;148;51.480;7.208;2024-01-06T04:36:06;8.30;99.90
322;DHT22;148;51.480;7.208;2024-01-06T04:38:32;8.20;99.90
322;DHT22;148;51.480;7.208;2024-01-06T04:40:57;8.10;99.90
322;DHT22;148;51.480;7.208;2024-01-06T04:43:23;7.90;99.90
322;DHT22;148;51.480;7.208;2024-01-06T04:45:49;7.80;99.90
322;DHT22;148;51.480;7.208;2024-01-06T04:48:16;7.70;99.90
322;DHT22;148;51.480;7.208;2024-01-06T04:50:41;7.90;99.90
322;DHT22;148;51.480;7.208;2024-01-06T04:53:08;7.90;99.90
322;DHT22;148;51.480;7.208;2024-01-06T04:55:33;8.20;99.90
322;DHT22;148;51.480;7.208;2024-01-06T04:57:59;8.30;99.90
322;DHT22;148;51.480;7.208;2024-01-06T05:00:25;8.10;99.90
322;DHT22;148;51.480;7.208;2024-01-06T05:02:51;8.00;99.90
322;DHT22;148;51.480;7.208;2024-01-06T05:05:17;7.90;99.90
322;DHT22;148;51.480;7.208;2024-01-06T05:07:43;8.00;99.90
322;DHT22;148;51.480;7.208;2024-01-06T05:10:09;8.20;99.90
322;DHT22;148;51.480;7.208;2024-01-06T05:12:34;8.10;99.90
322;DHT22;148;51.480;7.208;2024-01-06T05:15:00;8.20;99.90
322;DHT22;148;51.480;7.208;2024-01-06T05:17:25;8.40;99.90
322;DHT22;148;51.480;7.208;2024-01-06T05:19:51;8.60;99.90
322;DHT22;148;51.480;7.208;2024-01-06T05:22:17;8.50;99.90
322;DHT22;148;51.480;7.208;2024-01-06T05:24:42;8.60;99.90
322;DHT22;148;51.480;7.208;2024-01-06T05:27:08;8.70;99.90
322;DHT22;148;51.480;7.208;2024-01-06T05:29:33;8.50;0.50
322;DHT22;148;51.480;7.208;2024-01-06T05:31:59;8.50;99.90
322;DHT22;148;51.480;7.208;2024-01-06T05:34:25;8.60;99.90
322;DHT22;148;51.480;7.208;2024-01-06T05:36:50;8.30;2.40
322;DHT22;148;51.480;7.208;2024-01-06T05:39:16;8.50;99.90
322;DHT22;148;51.480;7.208;2024-01-06T05:41:42;8.40;0.50
322;DHT22;148;51.480;7.208;2024-01-06T05:44:08;8.50;0.70
322;DHT22;148;51.480;7.208;2024-01-06T05:46:34;8.50;1.10
322;DHT22;148;51.480;7.208;2024-01-06T13:55:23;4.00;99.90
322;DHT22;148;51.480;7.208;2024-01-06T13:57:49;4.20;99.90
322;DHT22;148;51.480;7.208;2024-01-06T14:00:15;4.60;99.90
322;DHT22;148;51.480;7.208;2024-01-06T14:02:45;4.90;99.90
322;DHT22;148;51.480;7.208;2024-01-06T14:05:13;5.10;99.90
322;DHT22;148;51.480;7.208;2024-01-06T14:07:38;5.10;99.90
322;DHT22;148;51.480;7.208;2024-01-06T14:10:06;5.00;99.90
322;DHT22;148;51.480;7.208;2024-01-06T14:12:32;5.20;99.90
322;DHT22;148;51.480;7.208;2024-01-06T14:14:57;5.30;99.90
322;DHT22;148;51.480;7.208;2024-01-06T14:17:24;5.40;99.90
322;DHT22;148;51.480;7.208;2024-01-06T14:19:55;5.30;99.90
322;DHT22;148;51.480;7.208;2024-01-06T14:22:26;5.20;99.90
322;DHT22;148;51.480;7.208;2024-01-06T14:24:52;5.30;99.90
322;DHT22;148;51.480;7.208;2024-01-06T14:27:17;5.20;99.90
322;DHT22;148;51.480;7.208;2024-01-06T14:29:44;5.40;99.90
322;DHT22;148;51.480;7.208;2024-01-06T14:32:12;5.60;99.90
322;DHT22;148;51.480;7.208;2024-01-06T14:34:38;5.50;99.90
322;DHT22;148;51.480;7.208;2024-01-06T14:37:04;5.50;99.90
322;DHT22;148;51.480;7.208;2024-01-06T14:39:30;5.50;99.90
322;DHT22;148;51.480;7.208;2024-01-06T14:41:56;5.50;99.90
322;DHT22;148;51.480;7.208;2024-01-06T14:44:21;5.70;99.90
322;DHT22;148;51.480;7.208;2024-01-06T14:46:50;5.60;99.90
322;DHT22;148;51.480;7.208;2024-01-06T14:49:16;5.60;99.90
322;DHT22;148;51.480;7.208;2024-01-06T14:51:42;5.80;99.90
322;DHT22;148;51.480;7.208;2024-01-06T14:54:08;6.00;99.90
322;DHT22;148;51.480;7.208;2024-01-06T14:56:38;6.00;99.90
322;DHT22;148;51.480;7.208;2024-01-06T14:59:04;5.70;99.90
322;DHT22;148;51.480;7.208;2024-01-06T15:01:31;5.60;99.90
322;DHT22;148;51.480;7.208;2024-01-06T15:03:57;5.90;99.90
322;DHT22;148;51.480;7.208;2024-01-06T15:06:23;5.90;99.90
322;DHT22;148;51.480;7.208;2024-01-06T15:08:48;5.90;99.90
322;DHT22;148;51.480;7.208;2024-01-06T15:11:14;5.90;99.90
322;DHT22;148;51.480;7.208;2024-01-06T15:13:40;5.80;99.90
322;DHT22;148;51.480;7.208;2024-01-06T15:16:06;5.80;99.90
322;DHT22;148;51.480;7.208;2024-01-06T15:18:32;5.60;99.90
322;DHT22;148;51.480;7.208;2024-01-06T15:20:58;5.60;99.90
322;DHT22;148;51.480;7.208;2024-01-06T15:23:24;5.60;99.90
322;DHT22;148;51.480;7.208;2024-01-06T15:25:50;5.50;99.90
322;DHT22;148;51.480;7.208;2024-01-06T15:28:17;5.50;99.90
322;DHT22;148;51.480;7.208;2024-01-06T15:30:43;5.60;99.90
322;DHT22;148;51.480;7.208;2024-01-06T15:33:09;5.70;99.90
322;DHT22;148;51.480;7.208;2024-01-06T15:35:34;5.80;99.90
322;DHT22;148;51.480;7.208;2024-01-06T15:38:00;5.70;99.90
322;DHT22;148;51.480;7.208;2024-01-06T15:40:25;5.70;99.90
322;DHT22;148;51.480;7.208;2024-01-06T15:42:51;5.90;99.90
322;DHT22;148;51.480;7.208;2024-01-06T15:45:16;5.70;99.90
322;DHT22;148;51.480;7.208;2024-01-06T15:47:42;5.50;99.90
322;DHT22;148;51.480;7.208;2024-01-06T15:50:08;5.50;99.90
322;DHT22;148;51.480;7.208;2024-01-06T15:52:34;5.80;99.90
322;DHT22;148;51.480;7.208;2024-01-06T15:55:00;6.00;99.90
322;DHT22;148;51.480;7.208;2024-01-06T15:57:26;6.00;99.90
322;DHT22;148;51.480;7.208;2024-01-06T15:59:58;5.80;99.90
322;DHT22;148;51.480;7.208;2024-01-06T16:02:24;5.60;99.90
322;DHT22;148;51.480;7.208;2024-01-06T16:04:49;5.10;99.90
322;DHT22;148;51.480;7.208;2024-01-06T16:07:15;5.20;99.90
322;DHT22;148;51.480;7.208;2024-01-06T16:09:41;5.30;99.90
322;DHT22;148;51.480;7.208;2024-01-06T16:12:07;5.30;99.90
322;DHT22;148;51.480;7.208;2024-01-06T16:14:33;5.40;99.90
322;DHT22;148;51.480;7.208;2024-01-06T16:16:59;5.40;99.90
322;DHT22;148;51.480;7.208;2024-01-06T16:19:28;5.10;99.90
322;DHT22;148;51.480;7.208;2024-01-06T16:21:53;5.30;99.90
322;DHT22;148;51.480;7.208;2024-01-06T16:24:23;5.40;99.90
322;DHT22;148;51.480;7.208;2024-01-06T16:26:52;5.50;99.90
322;DHT22;148;51.480;7.208;2024-01-06T16:29:18;5.50;99.90
322;DHT22;148;51.480;7.208;2024-01-06T16:31:46;5.60;99.90
322;DHT22;148;51.480;7.208;2024-01-06T16:34:12;5.60;99.90
322;DHT22;148;51.480;7.208;2024-01-06T16:36:37;5.70;99.90
322;DHT22;148;51.480;7.208;2024-01-06T16:39:03;5.70;99.90
322;DHT22;148;51.480;7.208;2024-01-06T16:41:28;5.50;99.90
322;DHT22;148;51.480;7.208;2024-01-06T16:43:55;5.50;99.90
322;DHT22;148;51.480;7.208;2024-01-06T16:46:20;5.70;99.90
322;DHT22;148;51.480;7.208;2024-01-06T16:48:46;5.60;99.90
322;DHT22;148;51.480;7.208;2024-01-06T16:51:12;5.60;99.90
322;DHT22;148;51.480;7.208;2024-01-06T16:53:38;5.70;99.90
322;DHT22;148;51.480;7.208;2024-01-06T16:56:04;5.70;99.90
322;DHT22;148;51.480;7.208;2024-01-06T16:58:30;5.70;99.90
322;DHT22;148;51.480;7.208;2024-01-06T17:00:56;5.80;99.90
322;DHT22;148;51.480;7.208;2024-01-06T17:03:21;5.90;99.90
322;DHT22;148;51.480;7.208;2024-01-06T17:05:48;6.10;99.90
322;DHT22;148;51.480;7.208;2024-01-06T17:08:13;6.20;99.90
322;DHT22;148;51.480;7.208;2024-01-06T17:10:39;6.20;99.90
322;DHT22;148;51.480;7.208;2024-01-06T17:13:06;6.30;99.90
322;DHT22;148;51.480;7.208;2024-01-06T17:15:32;6.20;3.50
322;DHT22;148;51.480;7.208;2024-01-06T17:17:57;6.10;4.90
322;DHT22;148;51.480;7.208;2024-01-06T17:20:23;6.10;6.10
322;DHT22;148;51.480;7.208;2024-01-06T17:22:49;6.10;4.40
322;DHT22;148;51.480;7.208;2024-01-06T17:25:16;6.10;4.60
322;DHT22;148;51.480;7.208;2024-01-06T17:27:43;6.20;6.00
322;DHT22;148;51.480;7.208;2024-01-06T17:30:10;6.10;5.80
322;DHT22;148;51.480;7.208;2024-01-06T17:32:36;6.20;2.60
322;DHT22;148;51.480;7.208;2024-01-06T17:35:02;6.10;4.00
322;DHT22;148;51.480;7.208;2024-01-06T17:37:33;6.10;2.20
322;DHT22;148;51.480;7.208;2024-01-06T17:39:58;6.20;2.50
322;DHT22;148;51.480;7.208;2024-01-06T17:42:24;6.20;5.90
322;DHT22;148;51.480;7.208;2024-01-06T17:44:51;6.20;4.50
322;DHT22;148;51.480;7.208;2024-01-06T17:47:16;6.10;3.80
322;DHT22;148;51.480;7.208;2024-01-06T17:49:42;6.10;4.40
322;DHT22;148;51.480;7.208;2024-01-06T17:52:08;5.70;2.60
322;DHT22;148;51.480;7.208;2024-01-06T17:54:39;5.90;99.90
322;DHT22;148;51.480;7.208;2024-01-06T17:57:04;5.90;99.90
322;DHT22;148;51.480;7.208;2024-01-06T17:59:30;5.80;99.90
322;DHT22;148;51.480;7.208;2024-01-06T18:01:56;5.80;99.90
322;DHT22;148;51.480;7.208;2024-01-06T18:04:22;5.80;99.90
322;DHT22;148;51.480;7.208;2024-01-06T18:06:48;5.70;99.90
322;DHT22;148;51.480;7.208;2024-01-06T18:09:13;5.70;99.90
322;DHT22;148;51.480;7.208;2024-01-06T18:11:43;5.80;99.90
322;DHT22;148;51.480;7.208;2024-01-06T18:14:11;5.90;99.90
322;DHT22;148;51.480;7.208;2024-01-06T18:16:39;5.90;0.50
322;DHT22;148;51.480;7.208;2024-01-06T18:19:05;5.80;99.90
322;DHT22;148;51.480;7.208;2024-01-06T18:21:31;5.80;99.90
322;DHT22;148;51.480;7.208;2024-01-06T18:23:57;5.90;99.90
322;DHT22;148;51.480;7.208;2024-01-06T18:26:23;6.00;99.90
322;DHT22;148;51.480;7.208;2024-01-06T18:28:48;6.00;99.90
322;DHT22;148;51.480;7.208;2024-01-06T18:31:14;6.00;99.90
322;DHT22;148;51.480;7.208;2024-01-06T18:33:41;6.10;99.90
322;DHT22;148;51.480;7.208;2024-01-06T18:36:07;6.20;99.90
322;DHT22;148;51.480;7.208;2024-01-06T18:38:33;6.20;1.50
322;DHT22;148;51.480;7.208;2024-01-06T18:40:59;6.20;4.70
322;DHT22;148;51.480;7.208;2024-01-06T18:43:26;6.30;4.20
322;DHT22;148;51.480;7.208;2024-01-06T18:45:51;6.20;6.30
322;DHT22;148;51.480;7.208;2024-01-06T18:48:17;6.10;6.60
322;DHT22;148;51.480;7.208;2024-01-06T18:50:43;6.00;4.70
322;DHT22;148;51.480;7.208;2024-01-06T18:53:09;6.20;3.20
322;DHT22;148;51.480;7.208;2024-01-06T18:55:35;6.30;4.70
322;DHT22;148;51.480;7.208;2024-01-06T18:58:01;6.30;7.20
322;DHT22;148;51.480;7.208;2024-01-06T19:00:26;6.30;10.30
322;DHT22;148;51.480;7.208;2024-01-06T19:02:52;6.20;9.70
322;DHT22;148;51.480;7.208;2024-01-06T19:05:17;6.20;8.70
322;DHT22;148;51.480;7.208;2024-01-06T19:07:44;6.20;9.40
322;DHT22;148;51.480;7.208;2024-01-06T19:10:11;6.20;3.60
322;DHT22;148;51.480;7.208;2024-01-06T19:12:37;6.20;3.60
322;DHT22;148;51.480;7.208;2024-01-06T19:15:03;6.20;3.60
322;DHT22;148;51.480;7.208;2024-01-06T19:17:29;6.10;0.50
322;DHT22;148;51.480;7.208;2024-01-06T19:19:54;6.00;1.80
322;DHT22;148;51.480;7.208;2024-01-06T19:22:20;6.10;2.00
322;DHT22;148;51.480;7.208;2024-01-06T19:24:48;5.90;6.50
322;DHT22;148;51.480;7.208;2024-01-06T19:27:13;5.80;3.70
322;DHT22;148;51.480;7.208;2024-01-06T19:29:41;5.70;4.40
322;DHT22;148;51.480;7.208;2024-01-06T19:32:08;5.30;0.80
322;DHT22;148;51.480;7.208;2024-01-06T19:34:34;5.50;99.90
322;DHT22;148;51.480;7.208;2024-01-06T19:37:00;5.50;99.90
322;DHT22;148;51.480;7.208;2024-01-06T19:39:27;5.70;99.90
322;DHT22;148;51.480;7.208;2024-01-06T19:41:54;5.60;0.80
322;DHT22;148;51.480;7.208;2024-01-06T19:44:19;5.50;1.10
322;DHT22;148;51.480;7.208;2024-01-06T19:46:45;5.50;99.90
322;DHT22;148;51.480;7.208;2024-01-06T19:49:11;5.50;99.90
322;DHT22;148;51.480;7.208;2024-01-06T19:51:36;5.20;99.90
